createdAt,value
2023-04-08T00:01:42.256Z,6.38
2023-04-08T00:05:03.969Z,6.39
2023-04-08T00:08:25.663Z,6.41
2023-04-08T00:11:48.325Z,6.42
2023-04-08T00:15:10.673Z,6.44
2023-04-08T00:18:32.207Z,6.44
2023-04-08T00:21:54.019Z,6.47
2023-04-08T00:25:16.058Z,6.48
2023-04-08T00:28:39.592Z,6.54
2023-04-08T00:32:00.915Z,6.55
2023-04-08T00:35:22.352Z,6.56
2023-04-08T00:38:43.799Z,6.55
2023-04-08T00:42:05.722Z,6.57
2023-04-08T00:45:28.435Z,6.57
2023-04-08T00:48:50.103Z,6.58
2023-04-08T00:52:11.738Z,6.55
2023-04-08T00:55:33.459Z,6.55
2023-04-08T00:58:55.598Z,6.54
2023-04-08T01:02:26.162Z,6.54
2023-04-08T01:05:57.624Z,6.55
2023-04-08T01:09:22.644Z,6.57
2023-04-08T01:12:51.478Z,6.57
2023-04-08T01:16:17.178Z,6.58
2023-04-08T01:19:44.737Z,6.49
2023-04-08T01:23:14.368Z,6.45
2023-04-08T01:26:38.430Z,6.42
2023-04-08T01:30:02.210Z,6.42
2023-04-08T01:33:28.894Z,6.39
2023-04-08T01:36:52.027Z,6.39
2023-04-08T01:40:14.586Z,6.41
2023-04-08T01:43:39.589Z,6.42
2023-04-08T01:47:02.181Z,6.41
2023-04-08T01:50:24.963Z,6.43
2023-04-08T01:53:46.658Z,6.43
2023-04-08T01:57:12.861Z,6.40
2023-04-08T02:00:37.725Z,6.39
2023-04-08T02:04:00.520Z,6.34
2023-04-08T02:07:22.926Z,6.34
2023-04-08T02:10:44.552Z,6.36
2023-04-08T02:14:06.454Z,6.37
2023-04-08T02:17:36.189Z,6.38
2023-04-08T02:21:03.219Z,6.42
2023-04-08T02:24:25.319Z,6.41
2023-04-08T02:27:48.873Z,6.43
2023-04-08T02:31:13.712Z,6.42
2023-04-08T02:34:41.428Z,6.44
2023-04-08T02:38:03.340Z,6.42
2023-04-08T02:41:24.858Z,6.47
2023-04-08T02:44:46.256Z,6.52
2023-04-08T02:48:08.075Z,6.53
2023-04-08T02:51:30.620Z,6.55
2023-04-08T02:54:51.805Z,6.53
2023-04-08T02:58:13.091Z,6.53
2023-04-08T03:01:34.575Z,6.53
2023-04-08T03:04:56.100Z,6.53
2023-04-08T03:08:19.320Z,6.50
2023-04-08T03:11:40.602Z,6.50
2023-04-08T03:15:03.429Z,6.49
2023-04-08T03:18:25.545Z,6.50
2023-04-08T03:21:47.283Z,6.49
2023-04-08T03:25:11.890Z,6.51
2023-04-08T03:28:33.373Z,6.51
2023-04-08T03:31:55.157Z,6.52
2023-04-08T03:35:17.641Z,6.53
2023-04-08T03:38:38.917Z,6.51
2023-04-08T03:42:03.065Z,6.51
2023-04-08T03:45:24.953Z,6.51
2023-04-08T03:48:46.135Z,6.51
2023-04-08T03:52:07.583Z,6.53
2023-04-08T03:55:29.134Z,6.50
2023-04-08T03:58:52.001Z,6.50
2023-04-08T04:02:13.955Z,6.46
2023-04-08T04:05:35.631Z,6.48
2023-04-08T04:08:57.016Z,6.43
2023-04-08T04:12:18.510Z,6.39
2023-04-08T04:15:41.765Z,6.42
2023-04-08T04:19:03.182Z,6.45
2023-04-08T04:22:24.778Z,6.48
2023-04-08T04:25:46.200Z,6.49
2023-04-08T04:29:07.492Z,6.48
2023-04-08T04:32:30.072Z,6.49
2023-04-08T04:35:52.041Z,6.46
2023-04-08T04:39:13.493Z,6.44
2023-04-08T04:42:34.796Z,6.43
2023-04-08T04:45:57.035Z,6.46
2023-04-08T04:49:20.032Z,6.51
2023-04-08T04:52:41.512Z,6.50
2023-04-08T04:56:03.645Z,6.50
2023-04-08T04:59:25.437Z,6.51
2023-04-08T05:02:47.455Z,6.53
2023-04-08T05:06:11.793Z,6.56
2023-04-08T05:09:33.418Z,6.56
2023-04-08T05:12:54.657Z,6.56
2023-04-08T05:16:16.609Z,6.54
2023-04-08T05:19:38.157Z,6.55
2023-04-08T05:23:00.737Z,6.57
2023-04-08T05:26:22.876Z,6.57
2023-04-08T05:29:44.488Z,6.57
2023-04-08T05:33:05.942Z,6.59
2023-04-08T05:36:27.442Z,6.54
2023-04-08T05:39:50.683Z,6.52
2023-04-08T05:43:12.305Z,6.51
2023-04-08T05:46:34.078Z,6.51
2023-04-08T05:49:55.683Z,6.48
2023-04-08T05:53:17.000Z,6.48
2023-04-08T05:56:40.609Z,6.48
2023-04-08T06:00:02.456Z,6.50
2023-04-08T06:03:28.056Z,6.50
2023-04-08T06:06:50.076Z,6.53
2023-04-08T06:10:11.867Z,6.54
2023-04-08T06:13:34.830Z,6.57
2023-04-08T06:16:57.341Z,6.60
2023-04-08T06:20:18.835Z,6.62
2023-04-08T06:23:40.474Z,6.65
2023-04-08T06:27:01.844Z,6.67
2023-04-08T06:30:25.411Z,6.69
2023-04-08T06:33:46.951Z,6.68
2023-04-08T06:37:08.828Z,6.66
2023-04-08T06:40:30.717Z,6.67
2023-04-08T06:43:52.203Z,6.67
2023-04-08T06:47:17.008Z,6.69
2023-04-08T06:50:38.226Z,6.67
2023-04-08T06:54:00.028Z,6.66
2023-04-08T06:57:21.754Z,6.64
2023-04-08T07:00:43.779Z,6.60
2023-04-08T07:04:06.435Z,6.63
2023-04-08T07:07:28.339Z,6.62
2023-04-08T07:10:49.828Z,6.65
2023-04-08T07:14:11.744Z,6.69
2023-04-08T07:17:34.025Z,6.71
2023-04-08T07:20:57.925Z,6.71
2023-04-08T07:24:19.176Z,6.76
2023-04-08T07:27:40.550Z,6.80
2023-04-08T07:31:11.672Z,6.81
2023-04-08T07:34:33.366Z,6.85
2023-04-08T07:37:57.769Z,6.89
2023-04-08T07:41:18.904Z,6.91
2023-04-08T07:44:39.994Z,6.91
2023-04-08T07:48:01.966Z,6.91
2023-04-08T07:51:23.565Z,6.94
2023-04-08T07:54:46.684Z,6.97
2023-04-08T07:58:07.995Z,7.03
2023-04-08T08:01:31.262Z,7.01
2023-04-08T08:04:53.107Z,7.02
2023-04-08T08:08:14.783Z,7.02
2023-04-08T08:11:37.545Z,7.01
2023-04-08T08:14:59.607Z,6.99
2023-04-08T08:18:21.076Z,7.06
2023-04-08T08:21:42.334Z,7.12
2023-04-08T08:25:04.585Z,7.13
2023-04-08T08:28:27.430Z,7.18
2023-04-08T08:31:49.243Z,7.22
2023-04-08T08:35:10.946Z,7.22
2023-04-08T08:38:32.704Z,7.29
2023-04-08T08:41:54.275Z,7.34
2023-04-08T08:45:17.803Z,7.39
2023-04-08T08:48:40.738Z,7.43
2023-04-08T08:52:02.511Z,7.48
2023-04-08T08:58:49.226Z,7.59
2023-04-08T09:02:25.419Z,7.58
2023-04-08T09:05:54.103Z,7.61
2023-04-08T09:09:16.052Z,7.66
2023-04-08T09:12:55.412Z,7.68
2023-04-08T09:16:18.890Z,7.74
2023-04-08T09:20:02.071Z,7.76
2023-04-08T09:27:42.430Z,7.85
2023-04-08T09:31:19.838Z,7.90
2023-04-08T09:34:43.013Z,7.94
2023-04-08T09:38:04.470Z,8.00
2023-04-08T09:41:29.882Z,8.06
2023-04-08T09:44:51.808Z,8.10
2023-04-08T09:48:18.512Z,8.11
2023-04-08T09:51:49.863Z,8.15
2023-04-08T09:55:13.593Z,8.21
2023-04-08T09:58:42.861Z,8.26
2023-04-08T10:02:08.881Z,8.33
2023-04-08T10:05:32.215Z,8.40
2023-04-08T10:08:55.374Z,8.45
2023-04-08T10:12:16.556Z,8.51
2023-04-08T10:15:40.893Z,8.60
2023-04-08T10:19:02.691Z,8.68
2023-04-08T10:22:49.921Z,8.78
2023-04-08T10:26:33.570Z,8.81
2023-04-08T10:29:55.014Z,8.90
2023-04-08T10:33:18.318Z,8.98
2023-04-08T10:36:40.069Z,9.03
2023-04-08T10:40:01.794Z,9.02
2023-04-08T10:43:24.456Z,9.04
2023-04-08T10:46:46.811Z,9.06
2023-04-08T10:50:14.856Z,9.06
2023-04-08T10:53:37.775Z,9.09
2023-04-08T10:56:59.935Z,9.20
2023-04-08T11:00:35.698Z,9.29
2023-04-08T11:03:57.595Z,9.35
2023-04-08T11:07:21.713Z,9.43
2023-04-08T11:10:45.075Z,9.54
2023-04-08T11:14:07.398Z,9.63
2023-04-08T11:17:31.564Z,9.72
2023-04-08T11:20:53.845Z,9.81
2023-04-08T11:24:16.483Z,9.92
2023-04-08T11:27:39.567Z,10.00
2023-04-08T11:31:01.274Z,10.06
2023-04-08T11:34:26.270Z,10.13
2023-04-08T11:37:49.839Z,10.19
2023-04-08T11:41:12.528Z,10.23
2023-04-08T11:44:34.546Z,10.30
2023-04-08T11:47:56.179Z,10.39
2023-04-08T11:51:18.976Z,10.42
2023-04-08T11:54:43.277Z,10.50
2023-04-08T11:58:07.591Z,10.57
2023-04-08T12:01:29.291Z,10.64
2023-04-08T12:04:51.132Z,10.66
2023-04-08T12:08:14.173Z,10.67
2023-04-08T12:11:35.940Z,10.70
2023-04-08T12:14:57.653Z,10.73
2023-04-08T12:18:19.159Z,10.77
2023-04-08T12:21:40.836Z,10.85
2023-04-08T12:25:04.250Z,10.95
2023-04-08T12:28:25.849Z,11.05
2023-04-08T12:31:47.277Z,11.12
2023-04-08T12:35:10.092Z,11.16
2023-04-08T12:38:31.557Z,11.20
2023-04-08T12:41:54.486Z,11.24
2023-04-08T12:45:16.241Z,11.34
2023-04-08T12:48:37.998Z,11.40
2023-04-08T12:52:00.010Z,11.49
2023-04-08T12:55:24.914Z,11.57
2023-04-08T12:58:47.737Z,11.61
2023-04-08T13:02:09.293Z,11.64
2023-04-08T13:05:42.876Z,11.71
2023-04-08T13:09:05.413Z,11.81
2023-04-08T13:12:27.217Z,11.85
2023-04-08T13:15:50.867Z,11.97
2023-04-08T13:19:12.711Z,12.09
2023-04-08T13:22:34.563Z,12.20
2023-04-08T13:25:56.226Z,12.23
2023-04-08T13:29:17.519Z,12.26
2023-04-08T13:32:40.750Z,12.26
2023-04-08T13:36:02.393Z,12.34
2023-04-08T13:39:23.620Z,12.32
2023-04-08T13:42:45.747Z,12.40
2023-04-08T13:46:08.105Z,12.49
2023-04-08T13:49:31.569Z,12.59
2023-04-08T13:52:53.153Z,12.64
2023-04-08T13:56:14.416Z,12.69
2023-04-08T13:59:36.032Z,12.76
2023-04-08T14:02:57.749Z,12.72
2023-04-08T14:06:20.536Z,12.72
2023-04-08T14:09:41.843Z,12.74
2023-04-08T14:13:03.628Z,12.73
2023-04-08T14:16:25.037Z,12.76
2023-04-08T14:19:46.807Z,12.79
2023-04-08T14:23:09.660Z,12.88
2023-04-08T14:26:33.180Z,13.00
2023-04-08T14:29:54.889Z,13.07
2023-04-08T14:33:16.298Z,13.14
2023-04-08T14:36:38.541Z,13.13
2023-04-08T14:40:01.143Z,13.09
2023-04-08T14:43:22.538Z,13.10
2023-04-08T14:46:43.909Z,13.08
2023-04-08T14:50:06.609Z,13.11
2023-04-08T14:53:28.126Z,13.12
2023-04-08T14:56:51.394Z,13.14
2023-04-08T15:00:14.301Z,13.19
2023-04-08T15:03:36.115Z,13.18
2023-04-08T15:06:57.831Z,13.17
2023-04-08T15:10:19.683Z,13.15
2023-04-08T15:13:43.153Z,13.13
2023-04-08T15:17:04.904Z,13.14
2023-04-08T15:20:26.497Z,13.23
2023-04-08T15:23:47.824Z,13.33
2023-04-08T15:27:09.405Z,13.44
2023-04-08T15:30:35.396Z,13.56
2023-04-08T15:33:58.508Z,13.67
2023-04-08T15:37:20.347Z,13.75
2023-04-08T15:40:43.378Z,13.90
2023-04-08T15:44:04.656Z,14.00
2023-04-08T15:47:27.532Z,13.94
2023-04-08T15:50:50.458Z,13.84
2023-04-08T15:54:12.291Z,13.74
2023-04-08T15:57:36.022Z,13.78
2023-04-08T16:00:57.777Z,13.82
2023-04-08T16:04:20.537Z,13.87
2023-04-08T16:07:43.109Z,13.80
2023-04-08T16:11:08.055Z,13.80
2023-04-08T16:14:30.767Z,13.87
2023-04-08T16:17:53.558Z,13.93
2023-04-08T16:21:17.245Z,13.81
2023-04-08T16:24:38.876Z,13.78
2023-04-08T16:28:00.494Z,13.86
2023-04-08T16:31:22.306Z,13.91
2023-04-08T16:34:43.734Z,13.94
2023-04-08T16:38:06.537Z,13.93
2023-04-08T16:41:28.133Z,13.90
2023-04-08T16:44:49.921Z,13.88
2023-04-08T16:48:12.639Z,13.89
2023-04-08T16:51:34.381Z,13.87
2023-04-08T16:54:57.687Z,13.74
2023-04-08T16:58:19.793Z,13.64
2023-04-08T17:01:41.702Z,13.60
2023-04-08T17:05:03.383Z,13.54
2023-04-08T17:08:25.968Z,13.32
2023-04-08T17:11:48.576Z,13.11
2023-04-08T17:15:11.452Z,12.94
2023-04-08T17:18:33.255Z,12.82
2023-04-08T17:21:55.039Z,12.71
2023-04-08T17:25:16.586Z,12.56
2023-04-08T17:28:39.872Z,12.40
2023-04-08T17:32:01.679Z,12.36
2023-04-08T17:35:23.030Z,12.24
2023-04-08T17:38:44.311Z,12.13
2023-04-08T17:42:05.960Z,11.99
2023-04-08T17:45:28.917Z,11.92
2023-04-08T17:48:50.355Z,11.81
2023-04-08T17:52:12.113Z,11.72
2023-04-08T17:55:33.454Z,11.65
2023-04-08T17:58:54.753Z,11.61
2023-04-08T18:02:17.923Z,11.57
2023-04-08T18:05:39.173Z,11.54
2023-04-08T18:09:00.908Z,11.52
2023-04-08T18:12:22.793Z,11.46
2023-04-08T18:15:44.411Z,11.33
2023-04-08T18:19:07.114Z,11.16
2023-04-08T18:22:28.894Z,11.08
2023-04-08T18:25:50.858Z,11.02
2023-04-08T18:29:12.463Z,10.98
2023-04-08T18:32:34.410Z,10.93
2023-04-08T18:35:59.552Z,10.89
2023-04-08T18:39:22.602Z,10.86
2023-04-08T18:42:44.111Z,10.82
2023-04-08T18:46:05.787Z,10.82
2023-04-08T18:49:30.224Z,10.78
2023-04-08T18:52:54.054Z,10.73
2023-04-08T18:56:16.081Z,10.70
2023-04-08T18:59:37.770Z,10.69
2023-04-08T19:02:59.427Z,10.68
2023-04-08T19:06:22.564Z,10.68
2023-04-08T19:09:45.589Z,10.68
2023-04-08T19:13:06.864Z,10.68
2023-04-08T19:16:28.413Z,10.67
2023-04-08T19:19:49.957Z,10.66
2023-04-08T19:23:11.190Z,10.64
2023-04-08T19:26:34.715Z,10.62
2023-04-08T19:29:56.251Z,10.60
2023-04-08T19:33:17.457Z,10.56
2023-04-08T19:36:38.862Z,10.52
2023-04-08T19:40:00.601Z,10.50
2023-04-08T19:43:23.572Z,10.47
2023-04-08T19:46:45.037Z,10.44
2023-04-08T19:50:08.439Z,10.43
2023-04-08T19:53:30.636Z,10.40
2023-04-08T19:56:52.088Z,10.40
2023-04-08T20:00:15.551Z,10.36
2023-04-08T20:03:37.367Z,10.33
2023-04-08T20:06:58.731Z,10.27
2023-04-08T20:10:20.619Z,10.24
2023-04-08T20:13:42.373Z,10.20
2023-04-08T20:17:05.917Z,10.19
2023-04-08T20:20:29.912Z,10.17
2023-04-08T20:23:52.035Z,10.15
2023-04-08T20:27:13.408Z,10.11
2023-04-08T20:30:34.820Z,10.08
2023-04-08T20:33:58.125Z,10.07
2023-04-08T20:37:19.632Z,10.06
2023-04-08T20:40:43.904Z,10.04
2023-04-08T20:44:08.557Z,10.01
2023-04-08T20:47:30.193Z,9.97
2023-04-08T20:50:52.831Z,9.97
2023-04-08T20:54:14.547Z,9.96
2023-04-08T20:57:35.857Z,9.94
2023-04-08T21:00:58.993Z,9.93
2023-04-08T21:04:20.940Z,9.90
2023-04-08T21:07:44.728Z,9.88
2023-04-08T21:11:06.642Z,9.84
2023-04-08T21:14:30.967Z,9.80
2023-04-08T21:17:52.803Z,9.78
2023-04-08T21:21:14.033Z,9.74
2023-04-08T21:24:36.697Z,9.72
2023-04-08T21:27:58.457Z,9.71
2023-04-08T21:31:20.178Z,9.68
2023-04-08T21:34:41.920Z,9.64
2023-04-08T21:38:03.782Z,9.64
2023-04-08T21:41:28.422Z,9.58
2023-04-08T21:44:52.108Z,9.52
2023-04-08T21:48:14.280Z,9.46
2023-04-08T21:51:35.879Z,9.41
2023-04-08T21:54:57.772Z,9.39
2023-04-08T21:58:20.871Z,9.39
2023-04-08T22:01:42.556Z,9.36
2023-04-08T22:05:04.280Z,9.32
2023-04-08T22:08:26.192Z,9.29
2023-04-08T22:11:47.794Z,9.21
2023-04-08T22:15:11.696Z,9.10
2023-04-08T22:18:32.956Z,9.02
2023-04-08T22:21:54.693Z,9.00
2023-04-08T22:25:16.163Z,9.01
2023-04-08T22:28:37.662Z,8.97
2023-04-08T22:32:00.382Z,8.95
2023-04-08T22:35:21.683Z,8.90
2023-04-08T22:38:43.526Z,8.87
2023-04-08T22:42:05.411Z,8.85
2023-04-08T22:45:27.087Z,8.81
2023-04-08T22:48:50.361Z,8.78
2023-04-08T22:52:12.352Z,8.75
2023-04-08T22:55:34.238Z,8.72
2023-04-08T22:58:56.028Z,8.70
2023-04-08T23:02:17.669Z,8.70
2023-04-08T23:05:40.933Z,8.65
2023-04-08T23:09:02.799Z,8.62
2023-04-08T23:12:24.580Z,8.55
2023-04-08T23:15:46.521Z,8.51
2023-04-08T23:19:07.756Z,8.49
2023-04-08T23:22:30.920Z,8.46
2023-04-08T23:25:55.570Z,8.45
2023-04-08T23:29:17.817Z,8.43
2023-04-08T23:32:39.254Z,8.42
2023-04-08T23:36:00.652Z,8.38
2023-04-08T23:39:24.493Z,8.34
2023-04-08T23:42:46.201Z,8.34
2023-04-08T23:46:07.852Z,8.34
2023-04-08T23:49:29.899Z,8.32
2023-04-08T23:52:51.227Z,8.31
2023-04-08T23:56:13.870Z,8.29
2023-04-08T23:59:35.289Z,8.29
